sensor_id;sensor_type;location;lat;lon;timestamp;temperature;humidity
40151;DHT22;25866;52.420;10.640;2022-08-19T00:00:14;21.50;99.90
40151;DHT22;25866;52.420;10.640;2022-08-19T00:02:40;21.50;99.90
40151;DHT22;25866;52.420;10.640;2022-08-19T00:05:08;21.40;99.90
40151;DHT22;25866;52.420;10.640;2022-08-19T00:07:35;21.40;99.90
40151;DHT22;25866;52.420;10.640;2022-08-19T00:10:04;21.40;99.90
40151;DHT22;25866;52.420;10.640;2022-08-19T00:12:29;21.40;99.90
40151;DHT22;25866;52.420;10.640;2022-08-19T00:14:55;21.40;99.90
40151;DHT22;25866;52.420;10.640;2022-08-19T00:17:21;21.40;99.90
40151;DHT22;25866;52.420;10.640;2022-08-19T00:19:47;21.40;99.90
40151;DHT22;25866;52.420;10.640;2022-08-19T00:22:13;21.30;99.90
40151;DHT22;25866;52.420;10.640;2022-08-19T00:24:38;21.30;99.90
40151;DHT22;25866;52.420;10.640;2022-08-19T00:27:06;21.30;99.90
40151;DHT22;25866;52.420;10.640;2022-08-19T00:29:32;21.30;99.90
40151;DHT22;25866;52.420;10.640;2022-08-19T00:31:58;21.30;99.90
40151;DHT22;25866;52.420;10.640;2022-08-19T00:34:25;21.30;99.90
40151;DHT22;25866;52.420;10.640;2022-08-19T00:36:53;21.30;99.90
40151;DHT22;25866;52.420;10.640;2022-08-19T00:39:19;21.30;99.90
40151;DHT22;25866;52.420;10.640;2022-08-19T00:41:46;21.30;99.90
40151;DHT22;25866;52.420;10.640;2022-08-19T00:44:19;21.30;99.90
40151;DHT22;25866;52.420;10.640;2022-08-19T00:46:48;21.30;99.90
40151;DHT22;25866;52.420;10.640;2022-08-19T00:49:27;21.20;99.90
40151;DHT22;25866;52.420;10.640;2022-08-19T00:52:04;21.20;99.90
40151;DHT22;25866;52.420;10.640;2022-08-19T00:54:32;21.20;99.90
40151;DHT22;25866;52.420;10.640;2022-08-19T00:56:59;21.20;99.90
40151;DHT22;25866;52.420;10.640;2022-08-19T00:59:27;21.20;99.90
40151;DHT22;25866;52.420;10.640;2022-08-19T01:01:53;21.20;99.90
40151;DHT22;25866;52.420;10.640;2022-08-19T01:04:19;21.20;99.90
40151;DHT22;25866;52.420;10.640;2022-08-19T01:06:45;21.10;99.90
40151;DHT22;25866;52.420;10.640;2022-08-19T01:09:11;21.10;99.90
40151;DHT22;25866;52.420;10.640;2022-08-19T01:11:40;21.10;99.90
40151;DHT22;25866;52.420;10.640;2022-08-19T01:14:08;21.10;99.90
40151;DHT22;25866;52.420;10.640;2022-08-19T01:16:35;21.10;99.90
40151;DHT22;25866;52.420;10.640;2022-08-19T01:19:01;21.00;99.90
40151;DHT22;25866;52.420;10.640;2022-08-19T01:21:50;21.00;99.90
40151;DHT22;25866;52.420;10.640;2022-08-19T01:24:17;21.00;99.90
40151;DHT22;25866;52.420;10.640;2022-08-19T01:26:44;21.00;99.90
40151;DHT22;25866;52.420;10.640;2022-08-19T01:29:11;21.00;99.90
40151;DHT22;25866;52.420;10.640;2022-08-19T01:31:37;20.90;99.90
40151;DHT22;25866;52.420;10.640;2022-08-19T01:34:05;20.90;99.90
40151;DHT22;25866;52.420;10.640;2022-08-19T01:36:35;20.90;99.90
40151;DHT22;25866;52.420;10.640;2022-08-19T01:39:05;20.90;99.90
40151;DHT22;25866;52.420;10.640;2022-08-19T01:44:07;20.90;99.90
40151;DHT22;25866;52.420;10.640;2022-08-19T01:46:34;20.90;99.90
40151;DHT22;25866;52.420;10.640;2022-08-19T01:49:01;20.80;99.90
40151;DHT22;25866;52.420;10.640;2022-08-19T01:51:27;20.80;99.90
40151;DHT22;25866;52.420;10.640;2022-08-19T01:53:54;20.80;99.90
40151;DHT22;25866;52.420;10.640;2022-08-19T01:56:20;20.70;99.90
40151;DHT22;25866;52.420;10.640;2022-08-19T01:58:49;20.70;99.90
40151;DHT22;25866;52.420;10.640;2022-08-19T02:01:17;20.70;99.90
40151;DHT22;25866;52.420;10.640;2022-08-19T02:03:47;20.70;99.90
40151;DHT22;25866;52.420;10.640;2022-08-19T02:06:13;20.70;99.90
40151;DHT22;25866;52.420;10.640;2022-08-19T02:08:39;20.70;99.90
40151;DHT22;25866;52.420;10.640;2022-08-19T02:11:06;20.60;99.90
40151;DHT22;25866;52.420;10.640;2022-08-19T02:13:42;20.60;99.90
40151;DHT22;25866;52.420;10.640;2022-08-19T02:16:08;20.60;99.90
40151;DHT22;25866;52.420;10.640;2022-08-19T02:18:33;20.50;99.90
40151;DHT22;25866;52.420;10.640;2022-08-19T02:20:59;20.50;99.90
40151;DHT22;25866;52.420;10.640;2022-08-19T02:23:27;20.50;99.90
40151;DHT22;25866;52.420;10.640;2022-08-19T02:25:53;20.50;99.90
40151;DHT22;25866;52.420;10.640;2022-08-19T02:28:18;20.40;99.90
40151;DHT22;25866;52.420;10.640;2022-08-19T02:30:45;20.40;99.90
40151;DHT22;25866;52.420;10.640;2022-08-19T02:33:11;20.40;99.90
40151;DHT22;25866;52.420;10.640;2022-08-19T02:35:40;20.30;99.90
40151;DHT22;25866;52.420;10.640;2022-08-19T02:38:05;20.30;99.90
40151;DHT22;25866;52.420;10.640;2022-08-19T02:40:51;20.30;99.90
40151;DHT22;25866;52.420;10.640;2022-08-19T02:43:18;20.30;99.90
40151;DHT22;25866;52.420;10.640;2022-08-19T02:45:46;20.30;99.90
40151;DHT22;25866;52.420;10.640;2022-08-19T02:48:14;20.30;99.90
40151;DHT22;25866;52.420;10.640;2022-08-19T02:50:42;20.30;99.90
40151;DHT22;25866;52.420;10.640;2022-08-19T02:53:08;20.20;99.90
40151;DHT22;25866;52.420;10.640;2022-08-19T02:55:53;20.20;99.90
40151;DHT22;25866;52.420;10.640;2022-08-19T02:58:20;20.20;99.90
40151;DHT22;25866;52.420;10.640;2022-08-19T03:00:52;20.20;99.90
40151;DHT22;25866;52.420;10.640;2022-08-19T03:03:18;20.10;99.90
40151;DHT22;25866;52.420;10.640;2022-08-19T03:05:46;20.10;99.90
40151;DHT22;25866;52.420;10.640;2022-08-19T03:08:13;20.10;99.90
40151;DHT22;25866;52.420;10.640;2022-08-19T03:10:47;20.00;99.90
40151;DHT22;25866;52.420;10.640;2022-08-19T03:13:16;20.00;99.90
40151;DHT22;25866;52.420;10.640;2022-08-19T03:15:44;19.90;99.90
40151;DHT22;25866;52.420;10.640;2022-08-19T03:18:11;19.90;99.90
40151;DHT22;25866;52.420;10.640;2022-08-19T03:20:45;19.80;99.90
40151;DHT22;25866;52.420;10.640;2022-08-19T03:23:11;19.80;99.90
40151;DHT22;25866;52.420;10.640;2022-08-19T03:25:45;19.80;99.90
40151;DHT22;25866;52.420;10.640;2022-08-19T03:28:12;19.80;99.90
40151;DHT22;25866;52.420;10.640;2022-08-19T03:30:39;19.80;99.90
40151;DHT22;25866;52.420;10.640;2022-08-19T03:33:09;19.80;99.90
40151;DHT22;25866;52.420;10.640;2022-08-19T03:35:37;19.80;99.90
40151;DHT22;25866;52.420;10.640;2022-08-19T03:38:06;19.80;99.90
40151;DHT22;25866;52.420;10.640;2022-08-19T03:40:33;19.70;99.90
40151;DHT22;25866;52.420;10.640;2022-08-19T03:43:01;19.70;99.90
40151;DHT22;25866;52.420;10.640;2022-08-19T03:45:29;19.70;99.90
40151;DHT22;25866;52.420;10.640;2022-08-19T03:47:55;19.60;99.90
40151;DHT22;25866;52.420;10.640;2022-08-19T03:50:21;19.70;99.90
40151;DHT22;25866;52.420;10.640;2022-08-19T03:52:50;19.70;99.90
40151;DHT22;25866;52.420;10.640;2022-08-19T03:55:19;19.60;99.90
40151;DHT22;25866;52.420;10.640;2022-08-19T03:57:45;19.60;99.90
40151;DHT22;25866;52.420;10.640;2022-08-19T04:00:13;19.60;99.90
40151;DHT22;25866;52.420;10.640;2022-08-19T04:02:39;19.60;99.90
40151;DHT22;25866;52.420;10.640;2022-08-19T04:05:07;19.60;99.90
40151;DHT22;25866;52.420;10.640;2022-08-19T04:07:33;19.50;99.90
40151;DHT22;25866;52.420;10.640;2022-08-19T04:09:59;19.50;99.90
40151;DHT22;25866;52.420;10.640;2022-08-19T04:12:25;19.50;99.90
40151;DHT22;25866;52.420;10.640;2022-08-19T04:15:04;19.60;99.90
40151;DHT22;25866;52.420;10.640;2022-08-19T04:17:31;19.50;99.90
40151;DHT22;25866;52.420;10.640;2022-08-19T04:19:57;19.50;99.90
40151;DHT22;25866;52.420;10.640;2022-08-19T04:22:23;19.50;99.90
40151;DHT22;25866;52.420;10.640;2022-08-19T04:24:55;19.50;99.90
40151;DHT22;25866;52.420;10.640;2022-08-19T04:27:21;19.50;99.90
40151;DHT22;25866;52.420;10.640;2022-08-19T04:29:47;19.50;99.90
40151;DHT22;25866;52.420;10.640;2022-08-19T04:32:13;19.50;99.90
40151;DHT22;25866;52.420;10.640;2022-08-19T04:34:40;19.50;99.90
40151;DHT22;25866;52.420;10.640;2022-08-19T04:37:08;19.50;99.90
40151;DHT22;25866;52.420;10.640;2022-08-19T04:39:38;19.40;99.90
40151;DHT22;25866;52.420;10.640;2022-08-19T04:42:23;19.40;99.90
40151;DHT22;25866;52.420;10.640;2022-08-19T04:45:12;19.40;99.90
40151;DHT22;25866;52.420;10.640;2022-08-19T04:47:43;19.40;99.90
40151;DHT22;25866;52.420;10.640;2022-08-19T04:50:10;19.40;99.90
40151;DHT22;25866;52.420;10.640;2022-08-19T04:52:37;19.40;99.90
40151;DHT22;25866;52.420;10.640;2022-08-19T04:55:10;19.40;99.90
40151;DHT22;25866;52.420;10.640;2022-08-19T04:57:36;19.30;99.90
40151;DHT22;25866;52.420;10.640;2022-08-19T05:00:07;19.30;99.90
40151;DHT22;25866;52.420;10.640;2022-08-19T05:02:33;19.30;99.90
40151;DHT22;25866;52.420;10.640;2022-08-19T05:05:05;19.30;99.90
40151;DHT22;25866;52.420;10.640;2022-08-19T05:07:31;19.20;99.90
40151;DHT22;25866;52.420;10.640;2022-08-19T05:09:57;19.20;99.90
40151;DHT22;25866;52.420;10.640;2022-08-19T05:12:23;19.20;99.90
40151;DHT22;25866;52.420;10.640;2022-08-19T05:14:49;19.20;99.90
40151;DHT22;25866;52.420;10.640;2022-08-19T05:17:15;19.20;99.90
40151;DHT22;25866;52.420;10.640;2022-08-19T05:19:40;19.10;99.90
40151;DHT22;25866;52.420;10.640;2022-08-19T05:22:35;19.10;99.90
40151;DHT22;25866;52.420;10.640;2022-08-19T05:25:12;19.20;99.90
40151;DHT22;25866;52.420;10.640;2022-08-19T05:27:38;19.10;99.90
40151;DHT22;25866;52.420;10.640;2022-08-19T05:30:04;19.10;99.90
40151;DHT22;25866;52.420;10.640;2022-08-19T05:32:30;19.10;99.90
40151;DHT22;25866;52.420;10.640;2022-08-19T05:35:04;19.10;99.90
40151;DHT22;25866;52.420;10.640;2022-08-19T05:37:29;19.10;99.90
40151;DHT22;25866;52.420;10.640;2022-08-19T05:39:55;19.10;99.90
40151;DHT22;25866;52.420;10.640;2022-08-19T05:42:24;19.10;99.90
40151;DHT22;25866;52.420;10.640;2022-08-19T05:44:51;19.10;99.90
40151;DHT22;25866;52.420;10.640;2022-08-19T05:47:17;19.10;99.90
40151;DHT22;25866;52.420;10.640;2022-08-19T05:49:44;19.00;99.90
40151;DHT22;25866;52.420;10.640;2022-08-19T05:52:13;19.00;99.90
40151;DHT22;25866;52.420;10.640;2022-08-19T05:54:40;19.10;99.90
40151;DHT22;25866;52.420;10.640;2022-08-19T05:57:09;19.10;99.90
40151;DHT22;25866;52.420;10.640;2022-08-19T05:59:35;19.10;99.90
40151;DHT22;25866;52.420;10.640;2022-08-19T06:02:03;19.10;99.90
40151;DHT22;25866;52.420;10.640;2022-08-19T06:04:29;19.10;99.90
40151;DHT22;25866;52.420;10.640;2022-08-19T06:06:55;19.10;99.90
40151;DHT22;25866;52.420;10.640;2022-08-19T06:09:22;19.10;99.90
40151;DHT22;25866;52.420;10.640;2022-08-19T06:11:51;19.10;99.90
40151;DHT22;25866;52.420;10.640;2022-08-19T06:14:22;19.10;99.90
40151;DHT22;25866;52.420;10.640;2022-08-19T06:16:50;19.10;99.90
40151;DHT22;25866;52.420;10.640;2022-08-19T06:19:19;19.10;99.90
40151;DHT22;25866;52.420;10.640;2022-08-19T06:21:46;19.10;99.90
40151;DHT22;25866;52.420;10.640;2022-08-19T06:24:15;19.10;99.90
40151;DHT22;25866;52.420;10.640;2022-08-19T06:26:45;19.20;99.90
40151;DHT22;25866;52.420;10.640;2022-08-19T06:29:13;19.10;99.90
40151;DHT22;25866;52.420;10.640;2022-08-19T06:31:45;19.10;99.90
40151;DHT22;25866;52.420;10.640;2022-08-19T06:34:11;19.10;99.90
40151;DHT22;25866;52.420;10.640;2022-08-19T06:36:42;19.10;99.90
40151;DHT22;25866;52.420;10.640;2022-08-19T06:39:11;19.10;99.90
40151;DHT22;25866;52.420;10.640;2022-08-19T06:41:46;19.10;99.90
40151;DHT22;25866;52.420;10.640;2022-08-19T06:44:12;19.10;99.90
40151;DHT22;25866;52.420;10.640;2022-08-19T06:46:45;19.00;99.90
40151;DHT22;25866;52.420;10.640;2022-08-19T06:49:11;19.00;99.90
40151;DHT22;25866;52.420;10.640;2022-08-19T06:51:41;19.00;99.90
40151;DHT22;25866;52.420;10.640;2022-08-19T06:54:07;19.00;99.90
40151;DHT22;25866;52.420;10.640;2022-08-19T06:56:47;19.00;99.90
40151;DHT22;25866;52.420;10.640;2022-08-19T06:59:16;19.00;99.90
40151;DHT22;25866;52.420;10.640;2022-08-19T07:01:46;19.00;99.90
40151;DHT22;25866;52.420;10.640;2022-08-19T07:04:15;19.00;99.90
40151;DHT22;25866;52.420;10.640;2022-08-19T07:06:45;19.00;99.90
40151;DHT22;25866;52.420;10.640;2022-08-19T07:09:15;19.00;99.90
40151;DHT22;25866;52.420;10.640;2022-08-19T07:11:50;19.00;99.90
40151;DHT22;25866;52.420;10.640;2022-08-19T07:14:20;19.00;99.90
40151;DHT22;25866;52.420;10.640;2022-08-19T07:16:50;19.00;99.90
40151;DHT22;25866;52.420;10.640;2022-08-19T07:19:18;19.00;99.90
40151;DHT22;25866;52.420;10.640;2022-08-19T07:21:46;19.00;99.90
40151;DHT22;25866;52.420;10.640;2022-08-19T07:24:12;19.00;99.90
40151;DHT22;25866;52.420;10.640;2022-08-19T07:26:43;19.00;99.90
40151;DHT22;25866;52.420;10.640;2022-08-19T07:29:10;19.00;99.90
40151;DHT22;25866;52.420;10.640;2022-08-19T07:31:36;19.00;99.90
40151;DHT22;25866;52.420;10.640;2022-08-19T07:34:08;19.00;99.90
40151;DHT22;25866;52.420;10.640;2022-08-19T07:36:37;19.00;99.90
40151;DHT22;25866;52.420;10.640;2022-08-19T07:39:15;19.00;99.90
40151;DHT22;25866;52.420;10.640;2022-08-19T07:41:42;19.00;99.90
40151;DHT22;25866;52.420;10.640;2022-08-19T07:44:09;19.00;99.90
40151;DHT22;25866;52.420;10.640;2022-08-19T07:46:37;19.10;99.90
40151;DHT22;25866;52.420;10.640;2022-08-19T07:49:06;19.10;99.90
40151;DHT22;25866;52.420;10.640;2022-08-19T07:51:32;19.00;99.90
40151;DHT22;25866;52.420;10.640;2022-08-19T07:53:58;19.10;99.90
40151;DHT22;25866;52.420;10.640;2022-08-19T07:56:27;19.00;99.90
40151;DHT22;25866;52.420;10.640;2022-08-19T07:58:53;19.00;99.90
40151;DHT22;25866;52.420;10.640;2022-08-19T08:01:24;19.00;99.90
40151;DHT22;25866;52.420;10.640;2022-08-19T08:03:51;19.00;99.90
40151;DHT22;25866;52.420;10.640;2022-08-19T08:06:36;19.10;99.90
40151;DHT22;25866;52.420;10.640;2022-08-19T08:09:33;19.10;99.90
40151;DHT22;25866;52.420;10.640;2022-08-19T08:12:09;19.10;99.90
40151;DHT22;25866;52.420;10.640;2022-08-19T08:14:39;19.10;99.90
40151;DHT22;25866;52.420;10.640;2022-08-19T08:17:09;19.10;99.90
40151;DHT22;25866;52.420;10.640;2022-08-19T08:19:35;19.20;99.90
40151;DHT22;25866;52.420;10.640;2022-08-19T08:22:02;19.10;99.90
40151;DHT22;25866;52.420;10.640;2022-08-19T08:24:30;19.20;99.90
40151;DHT22;25866;52.420;10.640;2022-08-19T08:27:06;19.20;99.90
40151;DHT22;25866;52.420;10.640;2022-08-19T08:29:32;19.30;99.90
40151;DHT22;25866;52.420;10.640;2022-08-19T08:31:58;19.30;99.90
40151;DHT22;25866;52.420;10.640;2022-08-19T08:34:24;19.40;99.90
40151;DHT22;25866;52.420;10.640;2022-08-19T08:37:09;19.40;99.90
40151;DHT22;25866;52.420;10.640;2022-08-19T08:39:35;19.50;99.90
40151;DHT22;25866;52.420;10.640;2022-08-19T08:42:08;19.60;99.90
40151;DHT22;25866;52.420;10.640;2022-08-19T08:44:54;19.60;99.90
40151;DHT22;25866;52.420;10.640;2022-08-19T08:47:26;19.60;99.90
40151;DHT22;25866;52.420;10.640;2022-08-19T08:50:01;19.70;99.90
40151;DHT22;25866;52.420;10.640;2022-08-19T08:52:31;19.80;99.90
40151;DHT22;25866;52.420;10.640;2022-08-19T08:55:05;19.90;99.90
40151;DHT22;25866;52.420;10.640;2022-08-19T08:57:52;19.90;99.90
40151;DHT22;25866;52.420;10.640;2022-08-19T09:02:56;20.00;99.90
40151;DHT22;25866;52.420;10.640;2022-08-19T09:05:24;20.10;99.90
40151;DHT22;25866;52.420;10.640;2022-08-19T09:08:06;20.10;99.90
40151;DHT22;25866;52.420;10.640;2022-08-19T09:10:38;20.20;99.90
40151;DHT22;25866;52.420;10.640;2022-08-19T09:15:56;20.30;99.90
40151;DHT22;25866;52.420;10.640;2022-08-19T09:18:25;20.30;99.90
40151;DHT22;25866;52.420;10.640;2022-08-19T09:20:51;20.40;99.90
40151;DHT22;25866;52.420;10.640;2022-08-19T09:23:16;20.40;99.90
40151;DHT22;25866;52.420;10.640;2022-08-19T09:25:42;20.40;99.90
40151;DHT22;25866;52.420;10.640;2022-08-19T09:28:10;20.50;99.90
40151;DHT22;25866;52.420;10.640;2022-08-19T09:30:41;20.40;99.90
40151;DHT22;25866;52.420;10.640;2022-08-19T09:33:07;20.40;99.90
40151;DHT22;25866;52.420;10.640;2022-08-19T09:35:33;20.40;99.90
40151;DHT22;25866;52.420;10.640;2022-08-19T09:38:21;20.40;99.90
40151;DHT22;25866;52.420;10.640;2022-08-19T09:40:46;20.50;99.90
40151;DHT22;25866;52.420;10.640;2022-08-19T09:43:12;20.50;99.90
40151;DHT22;25866;52.420;10.640;2022-08-19T09:45:38;20.50;99.90
40151;DHT22;25866;52.420;10.640;2022-08-19T09:48:04;20.40;99.90
40151;DHT22;25866;52.420;10.640;2022-08-19T09:50:30;20.40;99.90
40151;DHT22;25866;52.420;10.640;2022-08-19T09:53:00;20.40;99.90
40151;DHT22;25866;52.420;10.640;2022-08-19T09:55:26;20.40;99.90
40151;DHT22;25866;52.420;10.640;2022-08-19T09:57:54;20.30;99.90
40151;DHT22;25866;52.420;10.640;2022-08-19T10:00:20;20.30;99.90
40151;DHT22;25866;52.420;10.640;2022-08-19T10:02:46;20.20;99.90
40151;DHT22;25866;52.420;10.640;2022-08-19T10:05:11;20.20;99.90
40151;DHT22;25866;52.420;10.640;2022-08-19T10:08:00;20.20;99.90
40151;DHT22;25866;52.420;10.640;2022-08-19T10:10:26;20.20;99.90
40151;DHT22;25866;52.420;10.640;2022-08-19T10:12:52;20.10;99.90
40151;DHT22;25866;52.420;10.640;2022-08-19T10:15:17;20.10;99.90
40151;DHT22;25866;52.420;10.640;2022-08-19T10:17:48;20.10;99.90
40151;DHT22;25866;52.420;10.640;2022-08-19T10:20:14;20.10;99.90
40151;DHT22;25866;52.420;10.640;2022-08-19T10:22:39;20.10;99.90
40151;DHT22;25866;52.420;10.640;2022-08-19T10:25:07;20.10;99.90
40151;DHT22;25866;52.420;10.640;2022-08-19T10:27:33;20.10;99.90
40151;DHT22;25866;52.420;10.640;2022-08-19T10:29:58;20.10;99.90
40151;DHT22;25866;52.420;10.640;2022-08-19T10:32:24;20.10;99.90
40151;DHT22;25866;52.420;10.640;2022-08-19T10:34:50;20.20;99.90
40151;DHT22;25866;52.420;10.640;2022-08-19T10:37:17;20.30;99.90
40151;DHT22;25866;52.420;10.640;2022-08-19T10:39:46;20.30;99.90
40151;DHT22;25866;52.420;10.640;2022-08-19T10:42:13;20.30;99.90
40151;DHT22;25866;52.420;10.640;2022-08-19T10:44:40;20.30;99.90
40151;DHT22;25866;52.420;10.640;2022-08-19T10:47:06;20.30;99.90
40151;DHT22;25866;52.420;10.640;2022-08-19T10:49:32;20.30;99.90
40151;DHT22;25866;52.420;10.640;2022-08-19T10:52:18;20.30;99.90
40151;DHT22;25866;52.420;10.640;2022-08-19T10:55:03;20.30;99.90
40151;DHT22;25866;52.420;10.640;2022-08-19T10:57:47;20.40;99.90
40151;DHT22;25866;52.420;10.640;2022-08-19T11:00:14;20.40;99.90
40151;DHT22;25866;52.420;10.640;2022-08-19T11:02:40;20.40;99.90
40151;DHT22;25866;52.420;10.640;2022-08-19T11:05:08;20.50;99.90
40151;DHT22;25866;52.420;10.640;2022-08-19T11:07:39;20.50;99.90
40151;DHT22;25866;52.420;10.640;2022-08-19T11:10:07;20.50;99.90
40151;DHT22;25866;52.420;10.640;2022-08-19T11:12:35;20.50;99.90
40151;DHT22;25866;52.420;10.640;2022-08-19T11:15:01;20.60;99.90
40151;DHT22;25866;52.420;10.640;2022-08-19T11:17:27;20.70;99.90
40151;DHT22;25866;52.420;10.640;2022-08-19T11:19:55;20.80;99.90
40151;DHT22;25866;52.420;10.640;2022-08-19T11:22:20;20.90;99.90
40151;DHT22;25866;52.420;10.640;2022-08-19T11:24:46;21.00;99.90
40151;DHT22;25866;52.420;10.640;2022-08-19T11:27:11;21.00;99.90
40151;DHT22;25866;52.420;10.640;2022-08-19T11:29:38;21.20;99.90
40151;DHT22;25866;52.420;10.640;2022-08-19T11:32:06;21.40;99.90
40151;DHT22;25866;52.420;10.640;2022-08-19T11:34:33;21.60;99.90
40151;DHT22;25866;52.420;10.640;2022-08-19T11:37:01;21.80;99.90
40151;DHT22;25866;52.420;10.640;2022-08-19T11:39:31;22.00;99.90
40151;DHT22;25866;52.420;10.640;2022-08-19T11:41:58;22.30;99.90
40151;DHT22;25866;52.420;10.640;2022-08-19T11:44:25;22.60;99.90
40151;DHT22;25866;52.420;10.640;2022-08-19T11:46:51;22.60;99.90
40151;DHT22;25866;52.420;10.640;2022-08-19T11:49:19;22.50;99.90
40151;DHT22;25866;52.420;10.640;2022-08-19T11:51:46;22.50;99.90
40151;DHT22;25866;52.420;10.640;2022-08-19T11:54:14;22.60;99.90
40151;DHT22;25866;52.420;10.640;2022-08-19T11:56:41;22.50;99.90
40151;DHT22;25866;52.420;10.640;2022-08-19T11:59:09;22.50;99.90
40151;DHT22;25866;52.420;10.640;2022-08-19T12:01:36;22.40;99.90
40151;DHT22;25866;52.420;10.640;2022-08-19T12:04:02;22.40;99.90
40151;DHT22;25866;52.420;10.640;2022-08-19T12:06:31;22.40;99.90
40151;DHT22;25866;52.420;10.640;2022-08-19T12:09:05;22.50;99.90
40151;DHT22;25866;52.420;10.640;2022-08-19T12:11:31;22.60;99.90
40151;DHT22;25866;52.420;10.640;2022-08-19T12:13:57;22.70;99.90
40151;DHT22;25866;52.420;10.640;2022-08-19T12:16:26;22.60;99.90
40151;DHT22;25866;52.420;10.640;2022-08-19T12:18:53;22.60;99.90
40151;DHT22;25866;52.420;10.640;2022-08-19T12:21:23;22.50;99.90
40151;DHT22;25866;52.420;10.640;2022-08-19T12:23:51;22.40;99.90
40151;DHT22;25866;52.420;10.640;2022-08-19T12:26:17;22.30;99.90
40151;DHT22;25866;52.420;10.640;2022-08-19T12:28:43;22.30;99.90
40151;DHT22;25866;52.420;10.640;2022-08-19T12:31:10;22.20;99.90
40151;DHT22;25866;52.420;10.640;2022-08-19T12:33:39;22.20;99.90
40151;DHT22;25866;52.420;10.640;2022-08-19T12:36:09;22.20;99.90
40151;DHT22;25866;52.420;10.640;2022-08-19T12:38:35;22.20;99.90
40151;DHT22;25866;52.420;10.640;2022-08-19T12:41:04;22.30;99.90
40151;DHT22;25866;52.420;10.640;2022-08-19T12:43:32;22.40;99.90
40151;DHT22;25866;52.420;10.640;2022-08-19T12:45:57;22.40;99.90
40151;DHT22;25866;52.420;10.640;2022-08-19T12:48:23;22.50;99.90
40151;DHT22;25866;52.420;10.640;2022-08-19T12:50:51;22.60;99.90
40151;DHT22;25866;52.420;10.640;2022-08-19T12:53:17;22.80;99.90
40151;DHT22;25866;52.420;10.640;2022-08-19T12:55:42;22.90;99.90
40151;DHT22;25866;52.420;10.640;2022-08-19T12:58:09;23.10;99.90
40151;DHT22;25866;52.420;10.640;2022-08-19T13:00:36;23.20;99.90
40151;DHT22;25866;52.420;10.640;2022-08-19T13:03:02;23.30;99.90
40151;DHT22;25866;52.420;10.640;2022-08-19T13:05:30;23.30;99.90
40151;DHT22;25866;52.420;10.640;2022-08-19T13:07:57;23.40;99.90
40151;DHT22;25866;52.420;10.640;2022-08-19T13:10:31;23.50;99.90
40151;DHT22;25866;52.420;10.640;2022-08-19T13:13:05;23.50;99.90
40151;DHT22;25866;52.420;10.640;2022-08-19T13:15:34;23.50;99.90
40151;DHT22;25866;52.420;10.640;2022-08-19T13:18:00;23.50;99.90
40151;DHT22;25866;52.420;10.640;2022-08-19T13:20:26;23.50;99.90
40151;DHT22;25866;52.420;10.640;2022-08-19T13:22:53;23.40;99.90
40151;DHT22;25866;52.420;10.640;2022-08-19T13:25:20;23.30;99.90
40151;DHT22;25866;52.420;10.640;2022-08-19T13:27:47;23.10;99.90
40151;DHT22;25866;52.420;10.640;2022-08-19T13:30:17;23.00;99.90
40151;DHT22;25866;52.420;10.640;2022-08-19T13:33:02;22.90;99.90
40151;DHT22;25866;52.420;10.640;2022-08-19T13:35:49;22.90;99.90
40151;DHT22;25866;52.420;10.640;2022-08-19T13:38:18;22.80;99.90
40151;DHT22;25866;52.420;10.640;2022-08-19T13:40:46;22.80;99.90
40151;DHT22;25866;52.420;10.640;2022-08-19T13:43:13;22.90;99.90
40151;DHT22;25866;52.420;10.640;2022-08-19T13:45:39;22.90;99.90
40151;DHT22;25866;52.420;10.640;2022-08-19T13:48:06;23.00;99.90
40151;DHT22;25866;52.420;10.640;2022-08-19T13:50:38;23.00;99.90
40151;DHT22;25866;52.420;10.640;2022-08-19T13:53:04;23.10;99.90
40151;DHT22;25866;52.420;10.640;2022-08-19T13:55:30;23.00;99.90
40151;DHT22;25866;52.420;10.640;2022-08-19T13:57:58;23.10;99.90
40151;DHT22;25866;52.420;10.640;2022-08-19T14:00:26;23.10;99.90
40151;DHT22;25866;52.420;10.640;2022-08-19T14:02:54;23.10;99.90
40151;DHT22;25866;52.420;10.640;2022-08-19T14:05:21;23.00;99.90
40151;DHT22;25866;52.420;10.640;2022-08-19T14:07:47;23.00;99.90
40151;DHT22;25866;52.420;10.640;2022-08-19T14:10:16;22.90;99.90
40151;DHT22;25866;52.420;10.640;2022-08-19T14:12:42;23.00;99.90
40151;DHT22;25866;52.420;10.640;2022-08-19T14:15:10;23.00;99.90
40151;DHT22;25866;52.420;10.640;2022-08-19T14:17:42;23.10;99.90
40151;DHT22;25866;52.420;10.640;2022-08-19T14:20:10;23.10;99.90
40151;DHT22;25866;52.420;10.640;2022-08-19T14:22:39;23.00;99.90
40151;DHT22;25866;52.420;10.640;2022-08-19T14:25:07;23.00;99.90
40151;DHT22;25866;52.420;10.640;2022-08-19T14:27:37;23.10;99.90
40151;DHT22;25866;52.420;10.640;2022-08-19T14:30:06;23.20;99.90
40151;DHT22;25866;52.420;10.640;2022-08-19T14:32:32;23.40;99.90
40151;DHT22;25866;52.420;10.640;2022-08-19T14:34:59;23.50;99.90
40151;DHT22;25866;52.420;10.640;2022-08-19T14:37:25;23.60;99.90
40151;DHT22;25866;52.420;10.640;2022-08-19T14:39:51;23.80;99.90
40151;DHT22;25866;52.420;10.640;2022-08-19T14:42:17;23.90;99.90
40151;DHT22;25866;52.420;10.640;2022-08-19T14:44:43;24.00;99.90
40151;DHT22;25866;52.420;10.640;2022-08-19T14:47:09;24.10;99.90
40151;DHT22;25866;52.420;10.640;2022-08-19T14:49:35;24.20;99.90
40151;DHT22;25866;52.420;10.640;2022-08-19T14:52:03;24.30;99.90
40151;DHT22;25866;52.420;10.640;2022-08-19T14:54:30;24.40;99.90
40151;DHT22;25866;52.420;10.640;2022-08-19T14:56:55;24.40;99.70
40151;DHT22;25866;52.420;10.640;2022-08-19T14:59:21;24.50;99.80
40151;DHT22;25866;52.420;10.640;2022-08-19T15:01:48;24.50;99.90
40151;DHT22;25866;52.420;10.640;2022-08-19T15:04:14;24.60;99.90
40151;DHT22;25866;52.420;10.640;2022-08-19T15:06:40;24.60;98.70
40151;DHT22;25866;52.420;10.640;2022-08-19T15:09:07;24.70;99.10
40151;DHT22;25866;52.420;10.640;2022-08-19T15:11:33;24.50;98.80
40151;DHT22;25866;52.420;10.640;2022-08-19T15:14:00;24.50;99.20
40151;DHT22;25866;52.420;10.640;2022-08-19T15:16:27;24.50;99.40
40151;DHT22;25866;52.420;10.640;2022-08-19T15:18:55;24.50;99.10
40151;DHT22;25866;52.420;10.640;2022-08-19T15:21:24;24.50;99.10
40151;DHT22;25866;52.420;10.640;2022-08-19T15:23:51;24.50;99.40
40151;DHT22;25866;52.420;10.640;2022-08-19T15:26:19;24.50;99.00
40151;DHT22;25866;52.420;10.640;2022-08-19T15:28:45;24.40;98.90
40151;DHT22;25866;52.420;10.640;2022-08-19T15:31:19;24.40;99.20